sensor_id;sensor_type;location;lat;lon;timestamp;pressure;altitude;pressure_sealevel;temperature;humidity
42001;BME280;27689;48.390;10.856;2023-03-26T00:00:22;95645.91;;;6.84;95.67
42001;BME280;27689;48.390;10.856;2023-03-26T00:03:06;95655.69;;;6.82;95.59
42001;BME280;27689;48.390;10.856;2023-03-26T00:06:04;95654.28;;;6.88;95.22
42001;BME280;27689;48.390;10.856;2023-03-26T00:08:51;95647.72;;;6.93;95.04
42001;BME280;27689;48.390;10.856;2023-03-26T00:11:35;95646.91;;;6.93;95.21
42001;BME280;27689;48.390;10.856;2023-03-26T00:14:20;95644.84;;;7.16;93.65
42001;BME280;27689;48.390;10.856;2023-03-26T00:17:04;95648.69;;;7.12;93.82
42001;BME280;27689;48.390;10.856;2023-03-26T00:19:47;95642.53;;;7.22;92.76
42001;BME280;27689;48.390;10.856;2023-03-26T00:22:32;95637.16;;;7.14;93.09
42001;BME280;27689;48.390;10.856;2023-03-26T00:25:16;95645.53;;;7.08;93.59
42001;BME280;27689;48.390;10.856;2023-03-26T00:28:00;95639.50;;;7.07;92.87
42001;BME280;27689;48.390;10.856;2023-03-26T00:30:44;95634.44;;;7.06;93.34
42001;BME280;27689;48.390;10.856;2023-03-26T00:33:27;95644.31;;;7.12;92.60
42001;BME280;27689;48.390;10.856;2023-03-26T00:36:14;95636.06;;;7.17;91.78
42001;BME280;27689;48.390;10.856;2023-03-26T00:38:59;95634.03;;;7.20;91.30
42001;BME280;27689;48.390;10.856;2023-03-26T00:41:43;95637.59;;;7.19;91.02
42001;BME280;27689;48.390;10.856;2023-03-26T00:44:27;95635.69;;;7.12;91.49
42001;BME280;27689;48.390;10.856;2023-03-26T00:47:11;95639.91;;;7.03;91.56
42001;BME280;27689;48.390;10.856;2023-03-26T00:49:56;95640.88;;;7.02;91.72
42001;BME280;27689;48.390;10.856;2023-03-26T00:52:42;95634.03;;;7.11;90.69
42001;BME280;27689;48.390;10.856;2023-03-26T00:55:26;95634.41;;;7.16;89.86
42001;BME280;27689;48.390;10.856;2023-03-26T00:58:11;95637.03;;;7.06;90.56
42001;BME280;27689;48.390;10.856;2023-03-26T01:00:58;95645.66;;;7.16;89.89
42001;BME280;27689;48.390;10.856;2023-03-26T01:03:43;95642.53;;;7.22;89.82
42001;BME280;27689;48.390;10.856;2023-03-26T01:06:30;95638.81;;;7.34;89.03
42001;BME280;27689;48.390;10.856;2023-03-26T01:09:17;95643.06;;;7.26;89.07
42001;BME280;27689;48.390;10.856;2023-03-26T01:12:04;95636.09;;;7.26;88.75
42001;BME280;27689;48.390;10.856;2023-03-26T01:14:50;95641.00;;;7.20;89.08
42001;BME280;27689;48.390;10.856;2023-03-26T01:17:35;95637.88;;;7.06;89.94
42001;BME280;27689;48.390;10.856;2023-03-26T01:20:21;95638.41;;;7.00;90.53
42001;BME280;27689;48.390;10.856;2023-03-26T01:23:09;95640.59;;;6.95;90.68
42001;BME280;27689;48.390;10.856;2023-03-26T01:26:04;95628.81;;;6.91;90.92
42001;BME280;27689;48.390;10.856;2023-03-26T01:28:54;95617.56;;;6.91;90.85
42001;BME280;27689;48.390;10.856;2023-03-26T01:31:53;95623.19;;;6.86;90.93
42001;BME280;27689;48.390;10.856;2023-03-26T01:34:58;95618.09;;;6.85;90.87
42001;BME280;27689;48.390;10.856;2023-03-26T01:41:07;95617.41;;;6.73;91.38
42001;BME280;27689;48.390;10.856;2023-03-26T01:43:59;95607.56;;;6.67;92.17
42001;BME280;27689;48.390;10.856;2023-03-26T01:46:46;95604.97;;;6.67;92.00
42001;BME280;27689;48.390;10.856;2023-03-26T01:49:31;95600.41;;;6.59;92.40
42001;BME280;27689;48.390;10.856;2023-03-26T01:52:19;95609.31;;;6.57;93.18
42001;BME280;27689;48.390;10.856;2023-03-26T01:55:04;95611.53;;;6.61;93.22
42001;BME280;27689;48.390;10.856;2023-03-26T02:00:51;95596.84;;;6.60;93.42
42001;BME280;27689;48.390;10.856;2023-03-26T02:03:46;95599.41;;;6.41;95.69
42001;BME280;27689;48.390;10.856;2023-03-26T02:06:43;95593.69;;;6.47;95.61
42001;BME280;27689;48.390;10.856;2023-03-26T02:09:30;95587.41;;;6.50;96.05
42001;BME280;27689;48.390;10.856;2023-03-26T02:12:20;95577.94;;;6.49;96.06
42001;BME280;27689;48.390;10.856;2023-03-26T02:15:06;95574.66;;;6.47;96.02
42001;BME280;27689;48.390;10.856;2023-03-26T02:17:50;95570.16;;;6.49;96.33
42001;BME280;27689;48.390;10.856;2023-03-26T02:20:36;95577.94;;;6.49;96.11
42001;BME280;27689;48.390;10.856;2023-03-26T02:23:20;95571.22;;;6.46;96.63
42001;BME280;27689;48.390;10.856;2023-03-26T02:26:05;95567.69;;;6.47;96.19
42001;BME280;27689;48.390;10.856;2023-03-26T02:28:50;95566.41;;;6.42;96.34
42001;BME280;27689;48.390;10.856;2023-03-26T02:31:34;95567.81;;;6.36;97.44
42001;BME280;27689;48.390;10.856;2023-03-26T02:34:18;95564.38;;;6.35;97.25
42001;BME280;27689;48.390;10.856;2023-03-26T02:37:02;95559.44;;;6.32;97.61
42001;BME280;27689;48.390;10.856;2023-03-26T02:39:46;95552.59;;;6.31;97.69
42001;BME280;27689;48.390;10.856;2023-03-26T02:42:30;95540.53;;;6.30;97.62
42001;BME280;27689;48.390;10.856;2023-03-26T02:45:14;95537.81;;;6.32;97.51
42001;BME280;27689;48.390;10.856;2023-03-26T02:47:58;95534.91;;;6.25;97.12
42001;BME280;27689;48.390;10.856;2023-03-26T02:50:43;95539.28;;;6.25;97.26
42001;BME280;27689;48.390;10.856;2023-03-26T02:53:28;95543.41;;;6.18;97.17
42001;BME280;27689;48.390;10.856;2023-03-26T02:56:12;95534.47;;;6.01;98.44
42001;BME280;27689;48.390;10.856;2023-03-26T02:58:56;95526.50;;;5.93;99.26
42001;BME280;27689;48.390;10.856;2023-03-26T03:01:40;95525.13;;;5.89;99.22
42001;BME280;27689;48.390;10.856;2023-03-26T03:04:25;95527.81;;;5.87;99.17
42001;BME280;27689;48.390;10.856;2023-03-26T03:07:09;95516.50;;;5.88;99.44
42001;BME280;27689;48.390;10.856;2023-03-26T03:09:57;95513.91;;;5.88;98.83
42001;BME280;27689;48.390;10.856;2023-03-26T03:12:45;95515.78;;;5.86;98.67
42001;BME280;27689;48.390;10.856;2023-03-26T03:15:28;95508.66;;;5.79;99.73
42001;BME280;27689;48.390;10.856;2023-03-26T03:18:12;95511.78;;;5.73;100.00
42001;BME280;27689;48.390;10.856;2023-03-26T03:20:56;95519.00;;;5.69;100.00
42001;BME280;27689;48.390;10.856;2023-03-26T03:23:40;95511.44;;;5.56;100.00
42001;BME280;27689;48.390;10.856;2023-03-26T03:26:24;95523.72;;;5.54;100.00
42001;BME280;27689;48.390;10.856;2023-03-26T03:29:12;95519.34;;;5.45;100.00
42001;BME280;27689;48.390;10.856;2023-03-26T03:31:56;95516.88;;;5.44;100.00
42001;BME280;27689;48.390;10.856;2023-03-26T03:34:42;95510.16;;;5.41;100.00
42001;BME280;27689;48.390;10.856;2023-03-26T03:37:26;95503.19;;;5.42;100.00
42001;BME280;27689;48.390;10.856;2023-03-26T03:40:11;95509.31;;;5.41;100.00
42001;BME280;27689;48.390;10.856;2023-03-26T03:42:55;95507.22;;;5.35;100.00
42001;BME280;27689;48.390;10.856;2023-03-26T03:45:39;95506.28;;;5.36;100.00
42001;BME280;27689;48.390;10.856;2023-03-26T03:48:23;95491.00;;;5.42;100.00
42001;BME280;27689;48.390;10.856;2023-03-26T03:51:07;95492.34;;;5.37;100.00
42001;BME280;27689;48.390;10.856;2023-03-26T03:53:51;95487.69;;;5.30;100.00
42001;BME280;27689;48.390;10.856;2023-03-26T03:56:35;95480.16;;;5.27;100.00
42001;BME280;27689;48.390;10.856;2023-03-26T03:59:20;95466.22;;;5.28;100.00
42001;BME280;27689;48.390;10.856;2023-03-26T04:02:04;95460.22;;;5.28;100.00
42001;BME280;27689;48.390;10.856;2023-03-26T04:04:49;95455.72;;;5.30;100.00
42001;BME280;27689;48.390;10.856;2023-03-26T04:07:33;95457.59;;;5.28;100.00
42001;BME280;27689;48.390;10.856;2023-03-26T04:10:17;95457.72;;;5.26;100.00
42001;BME280;27689;48.390;10.856;2023-03-26T04:13:01;95452.97;;;5.31;100.00
42001;BME280;27689;48.390;10.856;2023-03-26T04:15:45;95459.00;;;5.32;100.00
42001;BME280;27689;48.390;10.856;2023-03-26T04:18:29;95463.63;;;5.28;100.00
42001;BME280;27689;48.390;10.856;2023-03-26T04:21:15;95457.03;;;5.24;100.00
42001;BME280;27689;48.390;10.856;2023-03-26T04:23:59;95455.38;;;5.23;100.00
42001;BME280;27689;48.390;10.856;2023-03-26T04:26:44;95460.59;;;5.23;100.00
42001;BME280;27689;48.390;10.856;2023-03-26T04:29:35;95451.47;;;5.29;100.00
42001;BME280;27689;48.390;10.856;2023-03-26T04:32:23;95435.34;;;5.35;100.00
42001;BME280;27689;48.390;10.856;2023-03-26T04:35:13;95433.88;;;5.42;100.00
42001;BME280;27689;48.390;10.856;2023-03-26T04:37:57;95430.47;;;5.42;100.00
42001;BME280;27689;48.390;10.856;2023-03-26T04:40:42;95425.94;;;5.34;100.00
42001;BME280;27689;48.390;10.856;2023-03-26T04:43:29;95424.38;;;5.22;100.00
42001;BME280;27689;48.390;10.856;2023-03-26T04:46:13;95432.56;;;5.17;100.00
42001;BME280;27689;48.390;10.856;2023-03-26T04:49:01;95425.72;;;5.16;100.00
42001;BME280;27689;48.390;10.856;2023-03-26T04:51:45;95422.19;;;5.17;100.00
42001;BME280;27689;48.390;10.856;2023-03-26T04:54:30;95411.09;;;5.15;100.00
42001;BME280;27689;48.390;10.856;2023-03-26T04:57:19;95411.09;;;5.15;100.00
42001;BME280;27689;48.390;10.856;2023-03-26T05:00:06;95399.06;;;5.14;100.00
42001;BME280;27689;48.390;10.856;2023-03-26T05:02:57;95395.22;;;5.09;100.00
42001;BME280;27689;48.390;10.856;2023-03-26T05:05:42;95400.97;;;5.12;100.00
42001;BME280;27689;48.390;10.856;2023-03-26T05:08:26;95394.13;;;5.11;100.00
42001;BME280;27689;48.390;10.856;2023-03-26T05:11:11;95388.56;;;5.16;100.00
42001;BME280;27689;48.390;10.856;2023-03-26T05:13:55;95382.00;;;5.21;100.00
42001;BME280;27689;48.390;10.856;2023-03-26T05:16:40;95373.13;;;5.24;100.00
42001;BME280;27689;48.390;10.856;2023-03-26T05:19:24;95385.97;;;5.25;100.00
42001;BME280;27689;48.390;10.856;2023-03-26T05:22:09;95388.56;;;5.25;100.00
42001;BME280;27689;48.390;10.856;2023-03-26T05:24:52;95382.16;;;5.29;100.00
42001;BME280;27689;48.390;10.856;2023-03-26T05:27:37;95368.94;;;5.32;100.00
42001;BME280;27689;48.390;10.856;2023-03-26T05:30:21;95360.84;;;5.36;100.00
42001;BME280;27689;48.390;10.856;2023-03-26T05:33:05;95355.41;;;5.39;100.00
42001;BME280;27689;48.390;10.856;2023-03-26T05:36:07;95343.78;;;5.43;100.00
42001;BME280;27689;48.390;10.856;2023-03-26T05:38:52;95344.22;;;5.48;100.00
42001;BME280;27689;48.390;10.856;2023-03-26T05:41:36;95337.09;;;5.50;100.00
42001;BME280;27689;48.390;10.856;2023-03-26T05:44:20;95331.38;;;5.56;100.00
42001;BME280;27689;48.390;10.856;2023-03-26T05:47:04;95327.53;;;5.60;100.00
42001;BME280;27689;48.390;10.856;2023-03-26T05:49:48;95340.28;;;5.63;100.00
42001;BME280;27689;48.390;10.856;2023-03-26T05:52:32;95339.84;;;5.67;100.00
42001;BME280;27689;48.390;10.856;2023-03-26T05:55:16;95341.91;;;5.74;100.00
42001;BME280;27689;48.390;10.856;2023-03-26T05:58:01;95336.00;;;5.81;100.00
42001;BME280;27689;48.390;10.856;2023-03-26T06:00:45;95327.25;;;5.82;100.00
42001;BME280;27689;48.390;10.856;2023-03-26T06:03:32;95325.50;;;5.83;100.00
42001;BME280;27689;48.390;10.856;2023-03-26T06:06:18;95320.03;;;5.86;100.00
42001;BME280;27689;48.390;10.856;2023-03-26T06:09:03;95315.41;;;5.89;100.00
42001;BME280;27689;48.390;10.856;2023-03-26T06:11:48;95302.13;;;5.92;100.00
42001;BME280;27689;48.390;10.856;2023-03-26T06:14:32;95313.59;;;5.99;100.00
42001;BME280;27689;48.390;10.856;2023-03-26T06:17:16;95315.66;;;6.06;100.00
42001;BME280;27689;48.390;10.856;2023-03-26T06:20:00;95317.69;;;6.12;100.00
42001;BME280;27689;48.390;10.856;2023-03-26T06:22:44;95303.47;;;6.16;100.00
42001;BME280;27689;48.390;10.856;2023-03-26T06:25:28;95308.25;;;6.20;100.00
42001;BME280;27689;48.390;10.856;2023-03-26T06:28:13;95306.16;;;6.24;100.00
42001;BME280;27689;48.390;10.856;2023-03-26T06:31:03;95292.75;;;6.28;100.00
42001;BME280;27689;48.390;10.856;2023-03-26T06:33:47;95289.75;;;6.33;100.00
42001;BME280;27689;48.390;10.856;2023-03-26T06:36:31;95294.53;;;6.38;100.00
42001;BME280;27689;48.390;10.856;2023-03-26T06:39:15;95297.78;;;6.40;100.00
42001;BME280;27689;48.390;10.856;2023-03-26T06:41:59;95292.84;;;6.46;100.00
42001;BME280;27689;48.390;10.856;2023-03-26T06:44:43;95290.78;;;6.50;100.00
42001;BME280;27689;48.390;10.856;2023-03-26T06:47:27;95283.66;;;6.52;100.00
42001;BME280;27689;48.390;10.856;2023-03-26T06:50:11;95290.06;;;6.57;100.00
42001;BME280;27689;48.390;10.856;2023-03-26T06:52:55;95290.59;;;6.61;100.00
42001;BME280;27689;48.390;10.856;2023-03-26T06:55:39;95282.13;;;6.59;100.00
42001;BME280;27689;48.390;10.856;2023-03-26T06:58:24;95282.53;;;6.54;100.00
42001;BME280;27689;48.390;10.856;2023-03-26T07:01:08;95285.13;;;6.54;100.00
42001;BME280;27689;48.390;10.856;2023-03-26T07:03:53;95272.31;;;6.53;100.00
42001;BME280;27689;48.390;10.856;2023-03-26T07:06:36;95268.56;;;6.55;100.00
42001;BME280;27689;48.390;10.856;2023-03-26T07:09:21;95269.38;;;6.56;100.00
42001;BME280;27689;48.390;10.856;2023-03-26T07:12:05;95266.41;;;6.51;100.00
42001;BME280;27689;48.390;10.856;2023-03-26T07:14:49;95265.69;;;6.58;100.00
42001;BME280;27689;48.390;10.856;2023-03-26T07:17:33;95264.72;;;6.59;100.00
42001;BME280;27689;48.390;10.856;2023-03-26T07:20:16;95252.66;;;6.58;100.00
42001;BME280;27689;48.390;10.856;2023-03-26T07:23:00;95243.91;;;6.59;100.00
42001;BME280;27689;48.390;10.856;2023-03-26T07:25:46;95236.38;;;6.56;100.00
42001;BME280;27689;48.390;10.856;2023-03-26T07:28:55;95229.94;;;6.60;100.00
42001;BME280;27689;48.390;10.856;2023-03-26T07:31:49;95216.09;;;6.60;100.00
42001;BME280;27689;48.390;10.856;2023-03-26T07:41:19;95193.66;;;6.59;100.00
42001;BME280;27689;48.390;10.856;2023-03-26T07:44:21;95185.69;;;6.60;100.00
42001;BME280;27689;48.390;10.856;2023-03-26T07:47:26;95174.38;;;6.52;100.00
42001;BME280;27689;48.390;10.856;2023-03-26T07:50:20;95160.88;;;6.38;100.00
42001;BME280;27689;48.390;10.856;2023-03-26T07:53:04;95163.47;;;6.38;100.00
42001;BME280;27689;48.390;10.856;2023-03-26T07:55:54;95161.41;;;6.42;100.00
42001;BME280;27689;48.390;10.856;2023-03-26T07:59:03;95159.34;;;6.46;100.00
42001;BME280;27689;48.390;10.856;2023-03-26T08:08:07;95133.63;;;6.43;100.00
42001;BME280;27689;48.390;10.856;2023-03-26T08:13:59;95139.88;;;6.50;100.00
42001;BME280;27689;48.390;10.856;2023-03-26T08:16:52;95140.03;;;6.48;100.00
42001;BME280;27689;48.390;10.856;2023-03-26T08:22:54;95134.22;;;6.54;100.00
42001;BME280;27689;48.390;10.856;2023-03-26T08:28:41;95126.91;;;6.67;100.00
42001;BME280;27689;48.390;10.856;2023-03-26T08:31:36;95119.00;;;6.59;100.00
42001;BME280;27689;48.390;10.856;2023-03-26T08:34:22;95122.19;;;6.53;100.00
42001;BME280;27689;48.390;10.856;2023-03-26T08:37:06;95129.34;;;6.51;100.00
42001;BME280;27689;48.390;10.856;2023-03-26T08:39:52;95105.78;;;6.53;100.00
42001;BME280;27689;48.390;10.856;2023-03-26T08:46:41;95098.47;;;6.56;100.00
42001;BME280;27689;48.390;10.856;2023-03-26T08:52:54;95119.50;;;6.45;100.00
42001;BME280;27689;48.390;10.856;2023-03-26T08:56:18;95114.22;;;6.37;100.00
42001;BME280;27689;48.390;10.856;2023-03-26T09:12:00;95092.88;;;6.33;100.00
42001;BME280;27689;48.390;10.856;2023-03-26T09:21:44;95101.06;;;6.38;100.00
42001;BME280;27689;48.390;10.856;2023-03-26T09:27:57;95106.94;;;6.41;100.00
42001;BME280;27689;48.390;10.856;2023-03-26T09:34:20;95097.34;;;6.41;100.00
42001;BME280;27689;48.390;10.856;2023-03-26T09:37:16;95091.19;;;6.42;100.00
42001;BME280;27689;48.390;10.856;2023-03-26T09:40:14;95088.28;;;6.45;100.00
42001;BME280;27689;48.390;10.856;2023-03-26T09:50:11;95051.78;;;6.55;100.00
42001;BME280;27689;48.390;10.856;2023-03-26T09:53:29;95044.13;;;6.53;100.00
42001;BME280;27689;48.390;10.856;2023-03-26T09:59:39;95039.03;;;6.61;100.00
42001;BME280;27689;48.390;10.856;2023-03-26T10:02:43;95031.06;;;6.63;100.00
42001;BME280;27689;48.390;10.856;2023-03-26T10:12:26;95003.19;;;6.99;100.00
42001;BME280;27689;48.390;10.856;2023-03-26T10:15:30;95000.50;;;7.08;100.00
42001;BME280;27689;48.390;10.856;2023-03-26T10:27:46;95027.13;;;7.20;100.00
42001;BME280;27689;48.390;10.856;2023-03-26T10:30:43;95020.13;;;7.21;100.00
42001;BME280;27689;48.390;10.856;2023-03-26T10:36:35;95030.72;;;7.27;100.00
42001;BME280;27689;48.390;10.856;2023-03-26T10:39:33;95023.28;;;7.32;100.00
42001;BME280;27689;48.390;10.856;2023-03-26T10:42:57;95027.09;;;7.46;100.00
42001;BME280;27689;48.390;10.856;2023-03-26T10:46:20;95004.97;;;7.50;100.00
42001;BME280;27689;48.390;10.856;2023-03-26T10:52:46;95024.13;;;7.67;100.00
42001;BME280;27689;48.390;10.856;2023-03-26T10:55:39;95027.63;;;7.84;100.00
42001;BME280;27689;48.390;10.856;2023-03-26T10:58:28;95020.03;;;7.98;100.00
42001;BME280;27689;48.390;10.856;2023-03-26T11:04:44;95006.00;;;7.99;100.00
42001;BME280;27689;48.390;10.856;2023-03-26T11:07:38;95013.34;;;8.04;100.00
42001;BME280;27689;48.390;10.856;2023-03-26T11:10:35;95009.44;;;8.08;100.00
42001;BME280;27689;48.390;10.856;2023-03-26T11:13:43;95016.66;;;8.22;100.00
42001;BME280;27689;48.390;10.856;2023-03-26T11:16:41;94995.31;;;8.27;100.00
42001;BME280;27689;48.390;10.856;2023-03-26T11:19:40;94991.38;;;8.23;100.00
42001;BME280;27689;48.390;10.856;2023-03-26T11:22:43;94977.72;;;8.29;100.00
42001;BME280;27689;48.390;10.856;2023-03-26T11:25:40;94980.00;;;8.32;100.00
42001;BME280;27689;48.390;10.856;2023-03-26T11:28:31;94975.16;;;8.45;100.00
42001;BME280;27689;48.390;10.856;2023-03-26T11:34:20;94949.53;;;8.65;100.00
42001;BME280;27689;48.390;10.856;2023-03-26T11:37:14;94947.53;;;9.07;100.00
42001;BME280;27689;48.390;10.856;2023-03-26T11:40:04;94934.00;;;9.04;100.00
42001;BME280;27689;48.390;10.856;2023-03-26T11:42:58;94929.94;;;9.57;100.00
42001;BME280;27689;48.390;10.856;2023-03-26T11:45:45;94940.91;;;9.83;100.00
42001;BME280;27689;48.390;10.856;2023-03-26T11:51:29;94904.91;;;9.93;100.00
42001;BME280;27689;48.390;10.856;2023-03-26T11:54:15;94912.47;;;10.11;100.00
42001;BME280;27689;48.390;10.856;2023-03-26T11:57:05;94913.75;;;10.23;94.74
42001;BME280;27689;48.390;10.856;2023-03-26T12:00:13;94930.75;;;10.50;96.46
42001;BME280;27689;48.390;10.856;2023-03-26T12:03:00;94923.06;;;10.48;90.44
42001;BME280;27689;48.390;10.856;2023-03-26T12:05:50;94930.53;;;10.74;93.24
42001;BME280;27689;48.390;10.856;2023-03-26T12:08:38;94931.56;;;10.88;90.41
42001;BME280;27689;48.390;10.856;2023-03-26T12:11:26;94946.00;;;10.84;87.08
42001;BME280;27689;48.390;10.856;2023-03-26T12:14:22;94967.06;;;10.90;89.48
42001;BME280;27689;48.390;10.856;2023-03-26T12:17:11;95031.41;;;10.39;82.19
42001;BME280;27689;48.390;10.856;2023-03-26T12:19:57;95040.59;;;9.25;86.49
42001;BME280;27689;48.390;10.856;2023-03-26T12:22:41;95028.03;;;8.55;86.75
42001;BME280;27689;48.390;10.856;2023-03-26T12:25:30;95019.47;;;7.87;90.99
42001;BME280;27689;48.390;10.856;2023-03-26T12:28:18;95029.41;;;7.49;95.62
42001;BME280;27689;48.390;10.856;2023-03-26T12:31:03;95025.94;;;7.40;97.36
42001;BME280;27689;48.390;10.856;2023-03-26T12:34:15;95023.72;;;7.28;100.00
42001;BME280;27689;48.390;10.856;2023-03-26T12:37:00;95025.59;;;7.10;100.00
42001;BME280;27689;48.390;10.856;2023-03-26T12:39:44;95040.31;;;7.01;100.00
42001;BME280;27689;48.390;10.856;2023-03-26T12:42:30;95021.06;;;6.94;100.00
42001;BME280;27689;48.390;10.856;2023-03-26T12:45:15;95011.41;;;6.86;100.00
42001;BME280;27689;48.390;10.856;2023-03-26T12:48:03;94990.16;;;6.73;100.00
42001;BME280;27689;48.390;10.856;2023-03-26T12:51:00;94954.13;;;6.60;100.00
42001;BME280;27689;48.390;10.856;2023-03-26T13:00:02;94954.06;;;6.96;100.00
42001;BME280;27689;48.390;10.856;2023-03-26T13:03:23;94950.66;;;7.03;100.00
42001;BME280;27689;48.390;10.856;2023-03-26T13:12:50;95007.28;;;7.27;100.00
42001;BME280;27689;48.390;10.856;2023-03-26T13:15:43;94991.91;;;7.16;100.00
42001;BME280;27689;48.390;10.856;2023-03-26T13:18:50;95001.63;;;7.06;100.00
42001;BME280;27689;48.390;10.856;2023-03-26T13:21:59;95003.94;;;7.09;100.00
42001;BME280;27689;48.390;10.856;2023-03-26T13:24:55;95001.06;;;7.20;100.00
42001;BME280;27689;48.390;10.856;2023-03-26T13:27:55;95000.28;;;7.02;100.00
42001;BME280;27689;48.390;10.856;2023-03-26T13:34:12;94934.53;;;7.00;99.10
42001;BME280;27689;48.390;10.856;2023-03-26T13:40:15;94903.56;;;7.65;97.54
42001;BME280;27689;48.390;10.856;2023-03-26T13:49:31;94872.72;;;8.43;96.46
42001;BME280;27689;48.390;10.856;2023-03-26T13:55:35;94854.88;;;8.79;97.70
42001;BME280;27689;48.390;10.856;2023-03-26T13:58:36;94844.88;;;8.91;99.56
42001;BME280;27689;48.390;10.856;2023-03-26T14:01:43;94849.97;;;8.84;98.50
42001;BME280;27689;48.390;10.856;2023-03-26T14:04:34;94849.66;;;8.87;98.47
42001;BME280;27689;48.390;10.856;2023-03-26T14:07:24;94847.34;;;8.92;98.11
42001;BME280;27689;48.390;10.856;2023-03-26T14:10:15;94850.56;;;9.10;96.62
42001;BME280;27689;48.390;10.856;2023-03-26T14:13:05;94842.00;;;9.25;96.16
42001;BME280;27689;48.390;10.856;2023-03-26T14:15:56;94829.59;;;9.27;99.07
42001;BME280;27689;48.390;10.856;2023-03-26T14:18:55;94839.69;;;9.30;98.00
42001;BME280;27689;48.390;10.856;2023-03-26T14:22:12;94838.66;;;9.47;100.00
42001;BME280;27689;48.390;10.856;2023-03-26T14:31:41;94820.59;;;9.60;93.50
42001;BME280;27689;48.390;10.856;2023-03-26T14:44:40;94794.38;;;9.45;93.17
42001;BME280;27689;48.390;10.856;2023-03-26T14:48:25;94796.19;;;9.45;94.80
42001;BME280;27689;48.390;10.856;2023-03-26T14:51:11;94799.34;;;9.32;95.71
42001;BME280;27689;48.390;10.856;2023-03-26T14:54:18;94798.31;;;9.41;98.70
42001;BME280;27689;48.390;10.856;2023-03-26T15:00:23;94786.47;;;9.53;96.46
42001;BME280;27689;48.390;10.856;2023-03-26T15:12:53;94789.91;;;10.00;89.92
42001;BME280;27689;48.390;10.856;2023-03-26T15:16:05;94793.47;;;10.07;89.29
42001;BME280;27689;48.390;10.856;2023-03-26T15:41:49;94788.31;;;10.21;86.28
42001;BME280;27689;48.390;10.856;2023-03-26T15:44:47;94785.13;;;10.26;89.70
42001;BME280;27689;48.390;10.856;2023-03-26T15:57:15;94771.06;;;10.27;86.87
42001;BME280;27689;48.390;10.856;2023-03-26T16:00:22;94767.38;;;10.21;88.12
42001;BME280;27689;48.390;10.856;2023-03-26T16:06:21;94759.19;;;10.16;88.74
42001;BME280;27689;48.390;10.856;2023-03-26T16:12:27;94778.03;;;10.12;90.98
42001;BME280;27689;48.390;10.856;2023-03-26T16:15:22;94774.59;;;10.11;90.22
42001;BME280;27689;48.390;10.856;2023-03-26T16:24:21;94778.38;;;9.94;90.72
42001;BME280;27689;48.390;10.856;2023-03-26T16:27:27;94786.56;;;9.91;89.83
42001;BME280;27689;48.390;10.856;2023-03-26T16:30:27;94783.81;;;9.84;89.25
42001;BME280;27689;48.390;10.856;2023-03-26T16:33:19;94780.16;;;9.71;87.11
42001;BME280;27689;48.390;10.856;2023-03-26T16:36:14;94784.16;;;9.59;86.76
42001;BME280;27689;48.390;10.856;2023-03-26T16:39:36;94788.91;;;9.55;86.78
42001;BME280;27689;48.390;10.856;2023-03-26T16:42:30;94784.09;;;9.44;88.85
42001;BME280;27689;48.390;10.856;2023-03-26T16:48:43;94775.78;;;9.40;92.48
42001;BME280;27689;48.390;10.856;2023-03-26T16:54:38;94776.41;;;9.19;91.61
42001;BME280;27689;48.390;10.856;2023-03-26T16:57:35;94779.19;;;9.18;91.56
42001;BME280;27689;48.390;10.856;2023-03-26T17:00:28;94778.38;;;9.09;90.84
42001;BME280;27689;48.390;10.856;2023-03-26T17:03:36;94778.81;;;8.90;92.87
42001;BME280;27689;48.390;10.856;2023-03-26T17:09:44;94812.81;;;8.74;93.35
42001;BME280;27689;48.390;10.856;2023-03-26T17:12:43;94808.72;;;8.71;95.00
42001;BME280;27689;48.390;10.856;2023-03-26T17:15:35;94812.66;;;8.75;94.90
42001;BME280;27689;48.390;10.856;2023-03-26T17:21:13;94824.72;;;8.68;94.53
42001;BME280;27689;48.390;10.856;2023-03-26T17:24:22;94846.22;;;8.78;95.94
42001;BME280;27689;48.390;10.856;2023-03-26T17:27:33;94858.50;;;8.62;97.05
42001;BME280;27689;48.390;10.856;2023-03-26T17:33:37;94847.41;;;7.95;100.00
42001;BME280;27689;48.390;10.856;2023-03-26T17:36:41;94850.34;;;7.92;100.00
42001;BME280;27689;48.390;10.856;2023-03-26T17:45:19;94850.28;;;7.51;100.00
42001;BME280;27689;48.390;10.856;2023-03-26T17:48:19;94861.50;;;7.52;100.00
42001;BME280;27689;48.390;10.856;2023-03-26T17:54:31;94862.63;;;7.41;100.00
42001;BME280;27689;48.390;10.856;2023-03-26T18:00:26;94876.13;;;7.44;100.00
42001;BME280;27689;48.390;10.856;2023-03-26T18:03:34;94882.31;;;7.43;100.00
42001;BME280;27689;48.390;10.856;2023-03-26T18:06:34;94883.28;;;7.34;100.00
42001;BME280;27689;48.390;10.856;2023-03-26T18:09:40;94880.41;;;7.54;100.00
42001;BME280;27689;48.390;10.856;2023-03-26T18:21:34;94883.56;;;7.31;100.00
42001;BME280;27689;48.390;10.856;2023-03-26T18:24:22;94882.31;;;7.35;100.00
42001;BME280;27689;48.390;10.856;2023-03-26T18:27:17;94879.50;;;7.29;100.00
42001;BME280;27689;48.390;10.856;2023-03-26T18:30:13;94884.06;;;7.27;99.98
42001;BME280;27689;48.390;10.856;2023-03-26T18:33:11;94888.41;;;7.18;99.60
42001;BME280;27689;48.390;10.856;2023-03-26T18:35:57;94893.94;;;7.15;100.00
42001;BME280;27689;48.390;10.856;2023-03-26T18:38:41;94884.81;;;7.11;98.53
42001;BME280;27689;48.390;10.856;2023-03-26T18:41:33;94900.59;;;7.10;99.89
42001;BME280;27689;48.390;10.856;2023-03-26T18:44:22;94902.06;;;7.12;98.79
42001;BME280;27689;48.390;10.856;2023-03-26T18:47:06;94898.13;;;7.08;98.31
42001;BME280;27689;48.390;10.856;2023-03-26T18:49:54;94891.91;;;7.01;99.15
42001;BME280;27689;48.390;10.856;2023-03-26T18:52:40;94890.94;;;7.02;99.53
42001;BME280;27689;48.390;10.856;2023-03-26T18:55:32;94887.94;;;6.89;100.00
42001;BME280;27689;48.390;10.856;2023-03-26T18:58:30;94895.75;;;6.89;100.00